sensor_id;sensor_type;location;lat;lon;timestamp;P1;durP1;ratioP1;P2;durP2;ratioP2
6723;SDS011;3399;52.530;13.304;2023-07-13T00:01:58;1.93;;;1.83;;
6723;SDS011;3399;52.530;13.304;2023-07-13T00:04:24;2.17;;;1.97;;
6723;SDS011;3399;52.530;13.304;2023-07-13T00:06:50;2.40;;;2.20;;
6723;SDS011;3399;52.530;13.304;2023-07-13T00:09:16;2.00;;;1.73;;
6723;SDS011;3399;52.530;13.304;2023-07-13T00:11:43;2.53;;;2.27;;
6723;SDS011;3399;52.530;13.304;2023-07-13T00:14:09;3.57;;;2.20;;
6723;SDS011;3399;52.530;13.304;2023-07-13T00:16:36;2.57;;;2.10;;
6723;SDS011;3399;52.530;13.304;2023-07-13T00:19:03;2.60;;;1.97;;
6723;SDS011;3399;52.530;13.304;2023-07-13T00:21:30;2.70;;;2.13;;
6723;SDS011;3399;52.530;13.304;2023-07-13T00:23:56;5.73;;;2.33;;
6723;SDS011;3399;52.530;13.304;2023-07-13T00:26:22;2.83;;;2.33;;
6723;SDS011;3399;52.530;13.304;2023-07-13T00:28:47;1.70;;;1.60;;
6723;SDS011;3399;52.530;13.304;2023-07-13T00:31:13;3.50;;;2.10;;
6723;SDS011;3399;52.530;13.304;2023-07-13T00:33:41;5.23;;;2.70;;
6723;SDS011;3399;52.530;13.304;2023-07-13T00:36:07;2.50;;;2.20;;
6723;SDS011;3399;52.530;13.304;2023-07-13T00:38:34;2.77;;;2.53;;
6723;SDS011;3399;52.530;13.304;2023-07-13T00:41:00;3.77;;;2.07;;
6723;SDS011;3399;52.530;13.304;2023-07-13T00:43:28;4.40;;;2.60;;
6723;SDS011;3399;52.530;13.304;2023-07-13T00:48:24;3.60;;;2.20;;
6723;SDS011;3399;52.530;13.304;2023-07-13T00:50:53;2.43;;;2.23;;
6723;SDS011;3399;52.530;13.304;2023-07-13T00:53:21;5.23;;;2.57;;
6723;SDS011;3399;52.530;13.304;2023-07-13T00:55:48;3.53;;;2.00;;
6723;SDS011;3399;52.530;13.304;2023-07-13T00:58:15;3.37;;;2.00;;
6723;SDS011;3399;52.530;13.304;2023-07-13T01:00:41;4.50;;;2.20;;
6723;SDS011;3399;52.530;13.304;2023-07-13T01:03:07;3.33;;;2.23;;
6723;SDS011;3399;52.530;13.304;2023-07-13T01:05:33;4.83;;;2.67;;
6723;SDS011;3399;52.530;13.304;2023-07-13T01:08:00;2.70;;;2.10;;
6723;SDS011;3399;52.530;13.304;2023-07-13T01:10:28;5.37;;;2.77;;
6723;SDS011;3399;52.530;13.304;2023-07-13T01:12:54;2.37;;;2.13;;
6723;SDS011;3399;52.530;13.304;2023-07-13T01:15:39;6.27;;;2.73;;
6723;SDS011;3399;52.530;13.304;2023-07-13T01:18:10;5.20;;;2.37;;
6723;SDS011;3399;52.530;13.304;2023-07-13T01:20:38;2.80;;;2.60;;
6723;SDS011;3399;52.530;13.304;2023-07-13T01:26:26;2.47;;;2.10;;
6723;SDS011;3399;52.530;13.304;2023-07-13T01:28:52;5.30;;;2.80;;
6723;SDS011;3399;52.530;13.304;2023-07-13T01:31:17;3.93;;;2.63;;
6723;SDS011;3399;52.530;13.304;2023-07-13T01:33:43;3.30;;;2.30;;
6723;SDS011;3399;52.530;13.304;2023-07-13T01:36:09;3.27;;;2.40;;
6723;SDS011;3399;52.530;13.304;2023-07-13T01:38:36;4.17;;;3.30;;
6723;SDS011;3399;52.530;13.304;2023-07-13T01:41:02;4.67;;;3.83;;
6723;SDS011;3399;52.530;13.304;2023-07-13T01:43:28;8.47;;;4.07;;
6723;SDS011;3399;52.530;13.304;2023-07-13T01:45:53;21.60;;;7.60;;
6723;SDS011;3399;52.530;13.304;2023-07-13T01:48:19;11.30;;;5.20;;
6723;SDS011;3399;52.530;13.304;2023-07-13T01:50:45;6.53;;;3.93;;
6723;SDS011;3399;52.530;13.304;2023-07-13T01:53:13;3.53;;;2.83;;
6723;SDS011;3399;52.530;13.304;2023-07-13T01:55:39;5.43;;;3.33;;
6723;SDS011;3399;52.530;13.304;2023-07-13T01:58:04;4.10;;;3.07;;
6723;SDS011;3399;52.530;13.304;2023-07-13T02:00:30;4.70;;;3.30;;
6723;SDS011;3399;52.530;13.304;2023-07-13T02:02:56;3.67;;;3.00;;
6723;SDS011;3399;52.530;13.304;2023-07-13T02:05:22;4.83;;;2.80;;
6723;SDS011;3399;52.530;13.304;2023-07-13T02:07:47;3.80;;;2.77;;
6723;SDS011;3399;52.530;13.304;2023-07-13T02:10:14;5.03;;;2.80;;
6723;SDS011;3399;52.530;13.304;2023-07-13T02:12:40;4.17;;;2.67;;
6723;SDS011;3399;52.530;13.304;2023-07-13T02:15:06;3.37;;;2.50;;
6723;SDS011;3399;52.530;13.304;2023-07-13T02:17:33;3.43;;;2.63;;
6723;SDS011;3399;52.530;13.304;2023-07-13T02:19:59;3.77;;;2.40;;
6723;SDS011;3399;52.530;13.304;2023-07-13T02:22:25;3.37;;;2.53;;
6723;SDS011;3399;52.530;13.304;2023-07-13T02:24:50;4.70;;;3.00;;
6723;SDS011;3399;52.530;13.304;2023-07-13T02:27:16;4.47;;;2.97;;
6723;SDS011;3399;52.530;13.304;2023-07-13T02:29:42;3.17;;;2.60;;
6723;SDS011;3399;52.530;13.304;2023-07-13T02:32:07;3.57;;;3.00;;
6723;SDS011;3399;52.530;13.304;2023-07-13T02:34:33;2.43;;;2.13;;
6723;SDS011;3399;52.530;13.304;2023-07-13T02:36:59;4.37;;;2.63;;
6723;SDS011;3399;52.530;13.304;2023-07-13T02:39:24;2.50;;;2.30;;
6723;SDS011;3399;52.530;13.304;2023-07-13T02:41:50;2.63;;;2.43;;
6723;SDS011;3399;52.530;13.304;2023-07-13T02:44:15;4.23;;;2.80;;
6723;SDS011;3399;52.530;13.304;2023-07-13T02:46:41;2.50;;;2.30;;
6723;SDS011;3399;52.530;13.304;2023-07-13T02:49:06;3.70;;;2.47;;
6723;SDS011;3399;52.530;13.304;2023-07-13T02:51:32;3.33;;;2.83;;
6723;SDS011;3399;52.530;13.304;2023-07-13T02:54:01;5.67;;;3.20;;
6723;SDS011;3399;52.530;13.304;2023-07-13T02:56:29;3.93;;;2.60;;
6723;SDS011;3399;52.530;13.304;2023-07-13T02:58:55;2.70;;;2.33;;
6723;SDS011;3399;52.530;13.304;2023-07-13T03:01:21;7.37;;;2.80;;
6723;SDS011;3399;52.530;13.304;2023-07-13T03:03:48;3.47;;;2.50;;
6723;SDS011;3399;52.530;13.304;2023-07-13T03:06:14;3.63;;;3.07;;
6723;SDS011;3399;52.530;13.304;2023-07-13T03:08:41;2.80;;;2.60;;
6723;SDS011;3399;52.530;13.304;2023-07-13T03:11:08;2.77;;;2.40;;
6723;SDS011;3399;52.530;13.304;2023-07-13T03:13:36;2.87;;;2.37;;
6723;SDS011;3399;52.530;13.304;2023-07-13T03:16:03;3.40;;;2.70;;
6723;SDS011;3399;52.530;13.304;2023-07-13T03:18:29;3.20;;;2.87;;
6723;SDS011;3399;52.530;13.304;2023-07-13T03:20:54;4.37;;;3.10;;
6723;SDS011;3399;52.530;13.304;2023-07-13T03:23:21;3.20;;;2.90;;
6723;SDS011;3399;52.530;13.304;2023-07-13T03:25:47;3.17;;;2.80;;
6723;SDS011;3399;52.530;13.304;2023-07-13T03:28:13;6.87;;;2.87;;
6723;SDS011;3399;52.530;13.304;2023-07-13T03:30:40;3.63;;;3.00;;
6723;SDS011;3399;52.530;13.304;2023-07-13T03:33:06;3.00;;;2.60;;
6723;SDS011;3399;52.530;13.304;2023-07-13T03:35:31;3.23;;;2.93;;
6723;SDS011;3399;52.530;13.304;2023-07-13T03:37:58;3.63;;;2.70;;
6723;SDS011;3399;52.530;13.304;2023-07-13T03:40:24;3.07;;;2.50;;
6723;SDS011;3399;52.530;13.304;2023-07-13T03:42:51;4.63;;;2.67;;
6723;SDS011;3399;52.530;13.304;2023-07-13T03:45:16;3.10;;;2.70;;
6723;SDS011;3399;52.530;13.304;2023-07-13T03:47:42;4.87;;;2.90;;
6723;SDS011;3399;52.530;13.304;2023-07-13T03:50:08;3.33;;;3.00;;
6723;SDS011;3399;52.530;13.304;2023-07-13T03:52:34;5.77;;;3.60;;
6723;SDS011;3399;52.530;13.304;2023-07-13T03:54:59;5.33;;;2.90;;
6723;SDS011;3399;52.530;13.304;2023-07-13T03:57:25;4.27;;;3.07;;
6723;SDS011;3399;52.530;13.304;2023-07-13T03:59:50;5.43;;;2.97;;
6723;SDS011;3399;52.530;13.304;2023-07-13T04:02:16;2.93;;;2.70;;
6723;SDS011;3399;52.530;13.304;2023-07-13T04:04:42;3.43;;;3.13;;
6723;SDS011;3399;52.530;13.304;2023-07-13T04:07:08;4.37;;;2.53;;
6723;SDS011;3399;52.530;13.304;2023-07-13T04:09:34;3.57;;;3.10;;
6723;SDS011;3399;52.530;13.304;2023-07-13T04:11:59;5.07;;;3.23;;
6723;SDS011;3399;52.530;13.304;2023-07-13T04:14:25;8.07;;;3.20;;
6723;SDS011;3399;52.530;13.304;2023-07-13T04:16:50;7.40;;;3.40;;
6723;SDS011;3399;52.530;13.304;2023-07-13T04:19:16;4.60;;;3.50;;
6723;SDS011;3399;52.530;13.304;2023-07-13T04:21:42;4.57;;;3.13;;
6723;SDS011;3399;52.530;13.304;2023-07-13T04:24:07;6.67;;;3.67;;
6723;SDS011;3399;52.530;13.304;2023-07-13T04:26:33;3.43;;;3.13;;
6723;SDS011;3399;52.530;13.304;2023-07-13T04:29:01;4.10;;;3.60;;
6723;SDS011;3399;52.530;13.304;2023-07-13T04:31:28;4.30;;;3.90;;
6723;SDS011;3399;52.530;13.304;2023-07-13T04:33:54;3.70;;;3.40;;
6723;SDS011;3399;52.530;13.304;2023-07-13T04:36:20;4.87;;;3.30;;
6723;SDS011;3399;52.530;13.304;2023-07-13T04:38:45;6.57;;;3.07;;
6723;SDS011;3399;52.530;13.304;2023-07-13T04:41:12;5.73;;;3.80;;
6723;SDS011;3399;52.530;13.304;2023-07-13T04:43:38;4.47;;;4.07;;
6723;SDS011;3399;52.530;13.304;2023-07-13T04:46:07;3.83;;;3.53;;
6723;SDS011;3399;52.530;13.304;2023-07-13T04:48:36;5.13;;;4.23;;
6723;SDS011;3399;52.530;13.304;2023-07-13T04:51:02;3.87;;;3.57;;
6723;SDS011;3399;52.530;13.304;2023-07-13T04:53:28;4.67;;;3.87;;
6723;SDS011;3399;52.530;13.304;2023-07-13T04:55:55;4.80;;;3.70;;
6723;SDS011;3399;52.530;13.304;2023-07-13T04:58:21;4.60;;;4.03;;
6723;SDS011;3399;52.530;13.304;2023-07-13T05:00:47;5.03;;;4.07;;
6723;SDS011;3399;52.530;13.304;2023-07-13T05:03:13;5.07;;;4.00;;
6723;SDS011;3399;52.530;13.304;2023-07-13T05:05:38;8.00;;;4.10;;
6723;SDS011;3399;52.530;13.304;2023-07-13T05:08:04;7.40;;;4.27;;
6723;SDS011;3399;52.530;13.304;2023-07-13T05:10:29;7.80;;;4.07;;
6723;SDS011;3399;52.530;13.304;2023-07-13T05:12:55;6.90;;;4.13;;
6723;SDS011;3399;52.530;13.304;2023-07-13T05:15:21;7.30;;;4.20;;
6723;SDS011;3399;52.530;13.304;2023-07-13T05:17:48;7.90;;;4.10;;
6723;SDS011;3399;52.530;13.304;2023-07-13T05:20:14;7.57;;;4.63;;
6723;SDS011;3399;52.530;13.304;2023-07-13T05:22:41;3.93;;;3.50;;
6723;SDS011;3399;52.530;13.304;2023-07-13T05:25:07;9.07;;;4.60;;
6723;SDS011;3399;52.530;13.304;2023-07-13T05:27:36;4.33;;;3.43;;
6723;SDS011;3399;52.530;13.304;2023-07-13T05:30:02;6.53;;;3.40;;
6723;SDS011;3399;52.530;13.304;2023-07-13T05:32:28;8.30;;;3.90;;
6723;SDS011;3399;52.530;13.304;2023-07-13T05:34:54;3.77;;;3.37;;
6723;SDS011;3399;52.530;13.304;2023-07-13T05:37:20;4.13;;;3.73;;
6723;SDS011;3399;52.530;13.304;2023-07-13T05:39:45;9.17;;;4.53;;
6723;SDS011;3399;52.530;13.304;2023-07-13T05:42:11;6.00;;;4.33;;
6723;SDS011;3399;52.530;13.304;2023-07-13T05:44:36;5.70;;;4.43;;
6723;SDS011;3399;52.530;13.304;2023-07-13T05:47:02;4.47;;;3.77;;
6723;SDS011;3399;52.530;13.304;2023-07-13T05:49:29;5.83;;;3.60;;
6723;SDS011;3399;52.530;13.304;2023-07-13T05:51:55;5.90;;;3.87;;
6723;SDS011;3399;52.530;13.304;2023-07-13T05:54:21;7.27;;;4.10;;
6723;SDS011;3399;52.530;13.304;2023-07-13T05:56:46;4.90;;;3.57;;
6723;SDS011;3399;52.530;13.304;2023-07-13T05:59:12;6.00;;;4.20;;
6723;SDS011;3399;52.530;13.304;2023-07-13T06:01:37;9.07;;;4.87;;
6723;SDS011;3399;52.530;13.304;2023-07-13T06:04:03;5.00;;;3.33;;
6723;SDS011;3399;52.530;13.304;2023-07-13T06:06:28;5.13;;;3.23;;
6723;SDS011;3399;52.530;13.304;2023-07-13T06:08:54;7.17;;;2.80;;
6723;SDS011;3399;52.530;13.304;2023-07-13T06:11:21;6.17;;;2.90;;
6723;SDS011;3399;52.530;13.304;2023-07-13T06:13:48;6.97;;;2.83;;
6723;SDS011;3399;52.530;13.304;2023-07-13T06:16:14;6.77;;;3.57;;
6723;SDS011;3399;52.530;13.304;2023-07-13T06:18:40;5.43;;;3.00;;
6723;SDS011;3399;52.530;13.304;2023-07-13T06:21:10;8.03;;;3.10;;
6723;SDS011;3399;52.530;13.304;2023-07-13T06:23:37;7.03;;;3.63;;
6723;SDS011;3399;52.530;13.304;2023-07-13T06:26:03;4.63;;;3.10;;
6723;SDS011;3399;52.530;13.304;2023-07-13T06:28:30;3.07;;;2.53;;
6723;SDS011;3399;52.530;13.304;2023-07-13T06:30:57;5.23;;;2.50;;
6723;SDS011;3399;52.530;13.304;2023-07-13T06:33:23;3.07;;;2.77;;
6723;SDS011;3399;52.530;13.304;2023-07-13T06:35:49;4.70;;;2.80;;
6723;SDS011;3399;52.530;13.304;2023-07-13T06:38:14;4.67;;;2.60;;
6723;SDS011;3399;52.530;13.304;2023-07-13T06:40:39;4.37;;;2.30;;
6723;SDS011;3399;52.530;13.304;2023-07-13T06:43:06;5.07;;;2.23;;
6723;SDS011;3399;52.530;13.304;2023-07-13T06:45:35;3.97;;;2.60;;
6723;SDS011;3399;52.530;13.304;2023-07-13T06:48:05;4.40;;;2.40;;
6723;SDS011;3399;52.530;13.304;2023-07-13T06:50:31;4.73;;;2.20;;
6723;SDS011;3399;52.530;13.304;2023-07-13T06:52:56;5.20;;;2.40;;
6723;SDS011;3399;52.530;13.304;2023-07-13T06:55:22;2.43;;;2.00;;
6723;SDS011;3399;52.530;13.304;2023-07-13T06:57:47;6.53;;;2.97;;
6723;SDS011;3399;52.530;13.304;2023-07-13T07:00:13;3.70;;;2.50;;
6723;SDS011;3399;52.530;13.304;2023-07-13T07:02:39;6.97;;;2.47;;
6723;SDS011;3399;52.530;13.304;2023-07-13T07:05:04;4.83;;;2.17;;
6723;SDS011;3399;52.530;13.304;2023-07-13T07:07:30;4.73;;;2.10;;
6723;SDS011;3399;52.530;13.304;2023-07-13T07:09:56;6.00;;;2.67;;
6723;SDS011;3399;52.530;13.304;2023-07-13T07:12:21;3.60;;;2.33;;
6723;SDS011;3399;52.530;13.304;2023-07-13T07:14:47;4.93;;;2.30;;
6723;SDS011;3399;52.530;13.304;2023-07-13T07:17:12;5.93;;;2.40;;
6723;SDS011;3399;52.530;13.304;2023-07-13T07:19:38;3.07;;;2.00;;
6723;SDS011;3399;52.530;13.304;2023-07-13T07:22:04;6.83;;;2.27;;
6723;SDS011;3399;52.530;13.304;2023-07-13T07:24:29;2.63;;;1.87;;
6723;SDS011;3399;52.530;13.304;2023-07-13T07:26:55;3.53;;;2.10;;
6723;SDS011;3399;52.530;13.304;2023-07-13T07:29:20;3.33;;;1.93;;
6723;SDS011;3399;52.530;13.304;2023-07-13T07:31:47;2.97;;;1.67;;
6723;SDS011;3399;52.530;13.304;2023-07-13T07:34:12;4.47;;;1.50;;
6723;SDS011;3399;52.530;13.304;2023-07-13T07:36:38;2.37;;;2.17;;
6723;SDS011;3399;52.530;13.304;2023-07-13T07:39:03;2.43;;;1.60;;
6723;SDS011;3399;52.530;13.304;2023-07-13T07:41:29;2.70;;;1.50;;
6723;SDS011;3399;52.530;13.304;2023-07-13T07:43:55;2.87;;;1.97;;
6723;SDS011;3399;52.530;13.304;2023-07-13T07:46:21;4.70;;;1.70;;
6723;SDS011;3399;52.530;13.304;2023-07-13T07:48:46;4.97;;;1.93;;
6723;SDS011;3399;52.530;13.304;2023-07-13T07:51:11;10.97;;;1.87;;
6723;SDS011;3399;52.530;13.304;2023-07-13T07:53:37;2.73;;;1.90;;
6723;SDS011;3399;52.530;13.304;2023-07-13T07:56:03;5.90;;;2.27;;
6723;SDS011;3399;52.530;13.304;2023-07-13T07:58:28;2.70;;;1.83;;
6723;SDS011;3399;52.530;13.304;2023-07-13T08:00:54;2.50;;;1.97;;
6723;SDS011;3399;52.530;13.304;2023-07-13T08:03:26;2.90;;;1.47;;
6723;SDS011;3399;52.530;13.304;2023-07-13T08:05:52;2.70;;;1.70;;
6723;SDS011;3399;52.530;13.304;2023-07-13T08:08:18;1.80;;;1.70;;
6723;SDS011;3399;52.530;13.304;2023-07-13T08:10:44;3.13;;;1.90;;
6723;SDS011;3399;52.530;13.304;2023-07-13T08:13:09;2.73;;;1.80;;
6723;SDS011;3399;52.530;13.304;2023-07-13T08:15:35;4.37;;;2.17;;
6723;SDS011;3399;52.530;13.304;2023-07-13T08:18:02;3.50;;;2.00;;
6723;SDS011;3399;52.530;13.304;2023-07-13T08:20:27;2.17;;;1.97;;
6723;SDS011;3399;52.530;13.304;2023-07-13T08:22:53;2.93;;;1.70;;
6723;SDS011;3399;52.530;13.304;2023-07-13T08:25:18;4.33;;;1.83;;
6723;SDS011;3399;52.530;13.304;2023-07-13T08:27:45;1.67;;;1.43;;
6723;SDS011;3399;52.530;13.304;2023-07-13T08:30:11;1.48;;;1.30;;
6723;SDS011;3399;52.530;13.304;2023-07-13T08:32:36;3.30;;;1.57;;
6723;SDS011;3399;52.530;13.304;2023-07-13T08:35:02;3.30;;;1.50;;
6723;SDS011;3399;52.530;13.304;2023-07-13T08:37:29;1.17;;;1.07;;
6723;SDS011;3399;52.530;13.304;2023-07-13T08:39:54;3.63;;;1.20;;
6723;SDS011;3399;52.530;13.304;2023-07-13T08:45:08;1.37;;;1.17;;
6723;SDS011;3399;52.530;13.304;2023-07-13T08:47:44;2.47;;;1.67;;
6723;SDS011;3399;52.530;13.304;2023-07-13T08:50:14;1.97;;;1.30;;
6723;SDS011;3399;52.530;13.304;2023-07-13T08:52:43;2.03;;;1.43;;
6723;SDS011;3399;52.530;13.304;2023-07-13T08:55:20;2.90;;;1.30;;
6723;SDS011;3399;52.530;13.304;2023-07-13T08:57:50;4.07;;;1.33;;
6723;SDS011;3399;52.530;13.304;2023-07-13T09:00:21;1.80;;;1.43;;
6723;SDS011;3399;52.530;13.304;2023-07-13T09:02:54;1.03;;;0.90;;
6723;SDS011;3399;52.530;13.304;2023-07-13T09:05:26;3.50;;;1.77;;
6723;SDS011;3399;52.530;13.304;2023-07-13T09:10:52;2.25;;;1.60;;
6723;SDS011;3399;52.530;13.304;2023-07-13T09:13:27;1.40;;;1.30;;
6723;SDS011;3399;52.530;13.304;2023-07-13T09:15:59;3.33;;;2.27;;
6723;SDS011;3399;52.530;13.304;2023-07-13T09:18:27;2.17;;;1.40;;
6723;SDS011;3399;52.530;13.304;2023-07-13T09:21:15;5.38;;;1.60;;
6723;SDS011;3399;52.530;13.304;2023-07-13T09:23:45;2.58;;;1.63;;
6723;SDS011;3399;52.530;13.304;2023-07-13T09:26:20;1.80;;;1.47;;
6723;SDS011;3399;52.530;13.304;2023-07-13T09:28:57;3.97;;;1.55;;
6723;SDS011;3399;52.530;13.304;2023-07-13T09:31:37;3.55;;;1.40;;
6723;SDS011;3399;52.530;13.304;2023-07-13T09:34:10;3.55;;;1.88;;
6723;SDS011;3399;52.530;13.304;2023-07-13T09:36:36;4.10;;;1.70;;
6723;SDS011;3399;52.530;13.304;2023-07-13T09:41:47;15.18;;;5.25;;
6723;SDS011;3399;52.530;13.304;2023-07-13T09:44:35;3.08;;;2.65;;
6723;SDS011;3399;52.530;13.304;2023-07-13T09:47:25;2.60;;;2.27;;
6723;SDS011;3399;52.530;13.304;2023-07-13T09:49:56;5.37;;;3.00;;
6723;SDS011;3399;52.530;13.304;2023-07-13T09:52:23;3.30;;;3.00;;
6723;SDS011;3399;52.530;13.304;2023-07-13T09:54:51;5.17;;;3.27;;
6723;SDS011;3399;52.530;13.304;2023-07-13T09:57:19;3.03;;;2.57;;
6723;SDS011;3399;52.530;13.304;2023-07-13T09:59:49;4.70;;;2.83;;
6723;SDS011;3399;52.530;13.304;2023-07-13T10:02:29;5.00;;;3.10;;
6723;SDS011;3399;52.530;13.304;2023-07-13T10:05:00;5.10;;;4.07;;
6723;SDS011;3399;52.530;13.304;2023-07-13T10:07:40;3.13;;;2.93;;
6723;SDS011;3399;52.530;13.304;2023-07-13T10:10:21;4.67;;;3.20;;
6723;SDS011;3399;52.530;13.304;2023-07-13T10:12:48;6.77;;;3.50;;
6723;SDS011;3399;52.530;13.304;2023-07-13T10:15:16;8.07;;;4.17;;
6723;SDS011;3399;52.530;13.304;2023-07-13T10:17:43;2.67;;;2.47;;
6723;SDS011;3399;52.530;13.304;2023-07-13T10:20:10;3.27;;;2.83;;
6723;SDS011;3399;52.530;13.304;2023-07-13T10:22:50;3.73;;;3.20;;
6723;SDS011;3399;52.530;13.304;2023-07-13T10:25:20;4.47;;;2.43;;
6723;SDS011;3399;52.530;13.304;2023-07-13T10:27:55;6.10;;;2.60;;
6723;SDS011;3399;52.530;13.304;2023-07-13T10:30:28;5.20;;;2.87;;
6723;SDS011;3399;52.530;13.304;2023-07-13T10:33:00;3.50;;;3.20;;
6723;SDS011;3399;52.530;13.304;2023-07-13T10:35:29;3.77;;;2.47;;
6723;SDS011;3399;52.530;13.304;2023-07-13T10:37:57;3.83;;;2.60;;
6723;SDS011;3399;52.530;13.304;2023-07-13T10:43:25;7.57;;;2.43;;
6723;SDS011;3399;52.530;13.304;2023-07-13T10:46:02;3.53;;;2.77;;
6723;SDS011;3399;52.530;13.304;2023-07-13T10:48:30;3.00;;;2.67;;
6723;SDS011;3399;52.530;13.304;2023-07-13T10:50:59;2.50;;;2.33;;
6723;SDS011;3399;52.530;13.304;2023-07-13T10:53:36;5.93;;;2.67;;
6723;SDS011;3399;52.530;13.304;2023-07-13T10:56:50;3.67;;;2.67;;
6723;SDS011;3399;52.530;13.304;2023-07-13T10:59:14;4.23;;;2.93;;
6723;SDS011;3399;52.530;13.304;2023-07-13T11:01:48;2.67;;;2.47;;
6723;SDS011;3399;52.530;13.304;2023-07-13T11:04:21;4.37;;;2.80;;
6723;SDS011;3399;52.530;13.304;2023-07-13T11:06:50;4.15;;;2.35;;
6723;SDS011;3399;52.530;13.304;2023-07-13T11:11:58;3.13;;;2.70;;
6723;SDS011;3399;52.530;13.304;2023-07-13T11:14:27;5.13;;;2.90;;
6723;SDS011;3399;52.530;13.304;2023-07-13T11:22:46;4.22;;;2.25;;
6723;SDS011;3399;52.530;13.304;2023-07-13T11:27:46;3.47;;;2.00;;
6723;SDS011;3399;52.530;13.304;2023-07-13T11:30:31;2.53;;;2.05;;
6723;SDS011;3399;52.530;13.304;2023-07-13T11:35:32;1.45;;;1.35;;
6723;SDS011;3399;52.530;13.304;2023-07-13T11:38:02;2.83;;;2.10;;
6723;SDS011;3399;52.530;13.304;2023-07-13T11:40:33;2.03;;;1.80;;
6723;SDS011;3399;52.530;13.304;2023-07-13T11:43:00;2.38;;;2.17;;
6723;SDS011;3399;52.530;13.304;2023-07-13T11:45:26;2.78;;;1.80;;
6723;SDS011;3399;52.530;13.304;2023-07-13T11:47:53;3.80;;;2.20;;
6723;SDS011;3399;52.530;13.304;2023-07-13T11:50:20;2.00;;;1.85;;
6723;SDS011;3399;52.530;13.304;2023-07-13T11:52:49;3.58;;;2.15;;
6723;SDS011;3399;52.530;13.304;2023-07-13T11:55:18;2.45;;;2.25;;
6723;SDS011;3399;52.530;13.304;2023-07-13T11:57:56;5.18;;;2.20;;
6723;SDS011;3399;52.530;13.304;2023-07-13T12:00:28;5.53;;;2.40;;
6723;SDS011;3399;52.530;13.304;2023-07-13T12:02:59;4.60;;;2.90;;
6723;SDS011;3399;52.530;13.304;2023-07-13T12:05:27;3.17;;;2.20;;
6723;SDS011;3399;52.530;13.304;2023-07-13T12:07:53;3.60;;;2.38;;
6723;SDS011;3399;52.530;13.304;2023-07-13T12:12:55;3.50;;;2.42;;
6723;SDS011;3399;52.530;13.304;2023-07-13T12:15:23;3.88;;;2.75;;
6723;SDS011;3399;52.530;13.304;2023-07-13T12:17:54;2.67;;;1.95;;
6723;SDS011;3399;52.530;13.304;2023-07-13T12:20:25;7.68;;;2.28;;
6723;SDS011;3399;52.530;13.304;2023-07-13T12:23:05;2.80;;;2.38;;
6723;SDS011;3399;52.530;13.304;2023-07-13T12:25:35;3.92;;;1.88;;
6723;SDS011;3399;52.530;13.304;2023-07-13T12:28:01;3.20;;;2.00;;
6723;SDS011;3399;52.530;13.304;2023-07-13T12:30:47;3.63;;;1.70;;
6723;SDS011;3399;52.530;13.304;2023-07-13T12:33:14;3.40;;;1.80;;
6723;SDS011;3399;52.530;13.304;2023-07-13T12:35:45;1.85;;;1.70;;
6723;SDS011;3399;52.530;13.304;2023-07-13T12:38:12;2.58;;;1.70;;
6723;SDS011;3399;52.530;13.304;2023-07-13T12:40:38;3.47;;;1.92;;
6723;SDS011;3399;52.530;13.304;2023-07-13T12:43:05;4.75;;;2.05;;
6723;SDS011;3399;52.530;13.304;2023-07-13T12:45:39;4.38;;;1.95;;
6723;SDS011;3399;52.530;13.304;2023-07-13T12:48:23;3.97;;;1.40;;
6723;SDS011;3399;52.530;13.304;2023-07-13T12:50:50;1.77;;;1.33;;
6723;SDS011;3399;52.530;13.304;2023-07-13T12:53:16;5.30;;;2.20;;
6723;SDS011;3399;52.530;13.304;2023-07-13T12:55:47;1.73;;;1.60;;
6723;SDS011;3399;52.530;13.304;2023-07-13T12:58:25;2.55;;;1.70;;
6723;SDS011;3399;52.530;13.304;2023-07-13T13:00:57;2.58;;;2.25;;
6723;SDS011;3399;52.530;13.304;2023-07-13T13:03:29;2.17;;;1.45;;
6723;SDS011;3399;52.530;13.304;2023-07-13T13:06:05;3.03;;;1.45;;
6723;SDS011;3399;52.530;13.304;2023-07-13T13:08:40;2.08;;;1.50;;
6723;SDS011;3399;52.530;13.304;2023-07-13T13:11:07;3.70;;;3.20;;
6723;SDS011;3399;52.530;13.304;2023-07-13T13:13:34;24.55;;;21.08;;
6723;SDS011;3399;52.530;13.304;2023-07-13T13:16:13;13.88;;;12.00;;
6723;SDS011;3399;52.530;13.304;2023-07-13T13:18:46;6.55;;;3.97;;
6723;SDS011;3399;52.530;13.304;2023-07-13T13:21:12;4.55;;;2.10;;
6723;SDS011;3399;52.530;13.304;2023-07-13T13:23:37;4.72;;;4.15;;
6723;SDS011;3399;52.530;13.304;2023-07-13T13:26:04;3.22;;;1.83;;
6723;SDS011;3399;52.530;13.304;2023-07-13T13:28:34;2.78;;;1.58;;
6723;SDS011;3399;52.530;13.304;2023-07-13T13:30:59;1.58;;;1.35;;
6723;SDS011;3399;52.530;13.304;2023-07-13T13:33:25;3.97;;;1.60;;
6723;SDS011;3399;52.530;13.304;2023-07-13T13:35:50;3.38;;;1.50;;
6723;SDS011;3399;52.530;13.304;2023-07-13T13:38:17;1.45;;;1.35;;
6723;SDS011;3399;52.530;13.304;2023-07-13T13:40:45;3.95;;;1.75;;
6723;SDS011;3399;52.530;13.304;2023-07-13T13:43:15;3.13;;;1.63;;
6723;SDS011;3399;52.530;13.304;2023-07-13T13:45:51;2.40;;;1.73;;
6723;SDS011;3399;52.530;13.304;2023-07-13T13:48:28;1.58;;;1.48;;
6723;SDS011;3399;52.530;13.304;2023-07-13T13:50:56;4.80;;;1.52;;
6723;SDS011;3399;52.530;13.304;2023-07-13T13:53:23;2.85;;;1.70;;
6723;SDS011;3399;52.530;13.304;2023-07-13T13:55:52;2.35;;;1.38;;
6723;SDS011;3399;52.530;13.304;2023-07-13T13:58:18;5.40;;;1.77;;
6723;SDS011;3399;52.530;13.304;2023-07-13T14:00:44;2.25;;;1.40;;
6723;SDS011;3399;52.530;13.304;2023-07-13T14:03:14;2.45;;;1.35;;
6723;SDS011;3399;52.530;13.304;2023-07-13T14:05:42;2.53;;;1.75;;
6723;SDS011;3399;52.530;13.304;2023-07-13T14:08:18;9.98;;;1.88;;
6723;SDS011;3399;52.530;13.304;2023-07-13T14:10:45;3.70;;;1.52;;
6723;SDS011;3399;52.530;13.304;2023-07-13T14:13:16;4.20;;;1.48;;
6723;SDS011;3399;52.530;13.304;2023-07-13T14:15:44;3.20;;;1.80;;
6723;SDS011;3399;52.530;13.304;2023-07-13T14:18:11;3.50;;;1.80;;
6723;SDS011;3399;52.530;13.304;2023-07-13T14:20:37;4.68;;;1.67;;
6723;SDS011;3399;52.530;13.304;2023-07-13T14:23:02;1.52;;;1.40;;
6723;SDS011;3399;52.530;13.304;2023-07-13T14:25:28;3.30;;;1.40;;
6723;SDS011;3399;52.530;13.304;2023-07-13T14:27:55;3.78;;;1.70;;
6723;SDS011;3399;52.530;13.304;2023-07-13T14:30:24;3.25;;;1.92;;
6723;SDS011;3399;52.530;13.304;2023-07-13T14:32:50;2.15;;;1.33;;
6723;SDS011;3399;52.530;13.304;2023-07-13T14:35:16;1.80;;;1.00;;
6723;SDS011;3399;52.530;13.304;2023-07-13T14:37:45;1.55;;;1.40;;
6723;SDS011;3399;52.530;13.304;2023-07-13T14:40:12;2.00;;;1.42;;
6723;SDS011;3399;52.530;13.304;2023-07-13T14:42:43;1.58;;;1.42;;
6723;SDS011;3399;52.530;13.304;2023-07-13T14:45:12;4.88;;;1.33;;
6723;SDS011;3399;52.530;13.304;2023-07-13T14:47:44;1.38;;;1.20;;
6723;SDS011;3399;52.530;13.304;2023-07-13T14:50:18;2.75;;;1.25;;
6723;SDS011;3399;52.530;13.304;2023-07-13T14:52:46;1.17;;;1.15;;
6723;SDS011;3399;52.530;13.304;2023-07-13T14:55:16;2.88;;;1.63;;
6723;SDS011;3399;52.530;13.304;2023-07-13T14:57:43;2.20;;;1.20;;
6723;SDS011;3399;52.530;13.304;2023-07-13T15:00:12;2.45;;;1.20;;
6723;SDS011;3399;52.530;13.304;2023-07-13T15:02:38;1.92;;;1.30;;
6723;SDS011;3399;52.530;13.304;2023-07-13T15:05:23;4.20;;;1.38;;
6723;SDS011;3399;52.530;13.304;2023-07-13T15:07:52;2.90;;;1.33;;
6723;SDS011;3399;52.530;13.304;2023-07-13T15:10:22;0.88;;;0.75;;
6723;SDS011;3399;52.530;13.304;2023-07-13T15:12:57;1.23;;;1.13;;
6723;SDS011;3399;52.530;13.304;2023-07-13T15:15:25;1.35;;;1.13;;
6723;SDS011;3399;52.530;13.304;2023-07-13T15:17:52;1.15;;;1.05;;
6723;SDS011;3399;52.530;13.304;2023-07-13T15:20:19;1.38;;;1.27;;
6723;SDS011;3399;52.530;13.304;2023-07-13T15:22:50;0.98;;;0.90;;
6723;SDS011;3399;52.530;13.304;2023-07-13T15:25:21;2.40;;;1.35;;
6723;SDS011;3399;52.530;13.304;2023-07-13T15:27:49;2.05;;;1.25;;
6723;SDS011;3399;52.530;13.304;2023-07-13T15:30:15;2.13;;;1.35;;
6723;SDS011;3399;52.530;13.304;2023-07-13T15:32:41;2.40;;;1.17;;
6723;SDS011;3399;52.530;13.304;2023-07-13T15:35:18;1.05;;;0.90;;
6723;SDS011;3399;52.530;13.304;2023-07-13T15:37:45;1.10;;;1.00;;
6723;SDS011;3399;52.530;13.304;2023-07-13T15:40:12;1.45;;;1.20;;